sensor_id;sensor_type;location;lat;lon;timestamp;pressure;altitude;pressure_sealevel;temperature;humidity
42633;BME280;28261;53.304;-6.284;2023-05-24T00:01:51;102393.00;;;13.67;72.51
42633;BME280;28261;53.304;-6.284;2023-05-24T00:03:58;102395.06;;;13.62;73.21
42633;BME280;28261;53.304;-6.284;2023-05-24T00:06:02;102396.25;;;13.57;73.83
42633;BME280;28261;53.304;-6.284;2023-05-24T00:08:08;102387.63;;;13.51;73.42
42633;BME280;28261;53.304;-6.284;2023-05-24T00:10:12;102396.72;;;13.47;73.81
42633;BME280;28261;53.304;-6.284;2023-05-24T00:12:16;102396.03;;;13.44;73.97
42633;BME280;28261;53.304;-6.284;2023-05-24T00:14:20;102399.84;;;13.38;74.23
42633;BME280;28261;53.304;-6.284;2023-05-24T00:16:25;102402.66;;;13.35;74.54
42633;BME280;28261;53.304;-6.284;2023-05-24T00:18:29;102401.00;;;13.32;74.40
42633;BME280;28261;53.304;-6.284;2023-05-24T00:20:33;102408.31;;;13.29;74.44
42633;BME280;28261;53.304;-6.284;2023-05-24T00:22:38;102407.78;;;13.22;74.66
42633;BME280;28261;53.304;-6.284;2023-05-24T00:24:42;102402.63;;;13.19;75.60
42633;BME280;28261;53.304;-6.284;2023-05-24T00:26:47;102394.69;;;13.17;76.12
42633;BME280;28261;53.304;-6.284;2023-05-24T00:28:51;102406.28;;;13.16;75.82
42633;BME280;28261;53.304;-6.284;2023-05-24T00:30:55;102409.88;;;13.15;75.56
42633;BME280;28261;53.304;-6.284;2023-05-24T00:33:01;102405.50;;;13.14;75.97
42633;BME280;28261;53.304;-6.284;2023-05-24T00:35:05;102404.56;;;13.15;75.84
42633;BME280;28261;53.304;-6.284;2023-05-24T00:37:09;102391.25;;;13.15;76.12
42633;BME280;28261;53.304;-6.284;2023-05-24T00:39:13;102402.81;;;13.14;76.02
42633;BME280;28261;53.304;-6.284;2023-05-24T00:41:17;102398.50;;;13.12;75.69
42633;BME280;28261;53.304;-6.284;2023-05-24T00:43:19;102389.84;;;13.08;75.41
42633;BME280;28261;53.304;-6.284;2023-05-24T00:45:23;102397.03;;;13.06;75.92
42633;BME280;28261;53.304;-6.284;2023-05-24T00:47:26;102405.09;;;13.04;76.25
42633;BME280;28261;53.304;-6.284;2023-05-24T00:49:31;102392.03;;;13.00;75.99
42633;BME280;28261;53.304;-6.284;2023-05-24T00:51:34;102390.47;;;12.96;76.77
42633;BME280;28261;53.304;-6.284;2023-05-24T00:53:40;102389.03;;;12.89;77.06
42633;BME280;28261;53.304;-6.284;2023-05-24T00:55:44;102390.03;;;12.86;76.78
42633;BME280;28261;53.304;-6.284;2023-05-24T00:57:47;102391.06;;;12.83;77.64
42633;BME280;28261;53.304;-6.284;2023-05-24T00:59:54;102392.09;;;12.81;77.68
42633;BME280;28261;53.304;-6.284;2023-05-24T01:01:58;102386.91;;;12.78;77.01
42633;BME280;28261;53.304;-6.284;2023-05-24T01:04:02;102392.38;;;12.75;77.36
42633;BME280;28261;53.304;-6.284;2023-05-24T01:06:08;102380.09;;;12.72;78.02
42633;BME280;28261;53.304;-6.284;2023-05-24T01:08:16;102382.91;;;12.69;77.69
42633;BME280;28261;53.304;-6.284;2023-05-24T01:10:31;102378.59;;;12.66;77.68
42633;BME280;28261;53.304;-6.284;2023-05-24T01:12:45;102381.50;;;12.62;78.77
42633;BME280;28261;53.304;-6.284;2023-05-24T01:15:03;102370.13;;;12.58;78.29
42633;BME280;28261;53.304;-6.284;2023-05-24T01:17:15;102378.19;;;12.57;78.78
42633;BME280;28261;53.304;-6.284;2023-05-24T01:19:39;102376.53;;;12.54;78.34
42633;BME280;28261;53.304;-6.284;2023-05-24T01:21:58;102372.16;;;12.53;78.89
42633;BME280;28261;53.304;-6.284;2023-05-24T01:24:15;102376.63;;;12.52;78.71
42633;BME280;28261;53.304;-6.284;2023-05-24T01:26:36;102373.97;;;12.52;78.78
42633;BME280;28261;53.304;-6.284;2023-05-24T01:28:44;102365.19;;;12.50;78.92
42633;BME280;28261;53.304;-6.284;2023-05-24T01:30:49;102367.84;;;12.50;79.16
42633;BME280;28261;53.304;-6.284;2023-05-24T01:32:53;102361.66;;;12.50;79.21
42633;BME280;28261;53.304;-6.284;2023-05-24T01:34:57;102365.19;;;12.50;78.59
42633;BME280;28261;53.304;-6.284;2023-05-24T01:37:00;102366.06;;;12.51;79.45
42633;BME280;28261;53.304;-6.284;2023-05-24T01:39:05;102358.16;;;12.49;78.83
42633;BME280;28261;53.304;-6.284;2023-05-24T01:41:15;102363.53;;;12.48;79.44
42633;BME280;28261;53.304;-6.284;2023-05-24T01:43:28;102375.06;;;12.48;78.89
42633;BME280;28261;53.304;-6.284;2023-05-24T01:45:39;102374.25;;;12.46;79.13
42633;BME280;28261;53.304;-6.284;2023-05-24T01:47:55;102370.00;;;12.42;79.09
42633;BME280;28261;53.304;-6.284;2023-05-24T01:50:06;102369.25;;;12.40;78.62
42633;BME280;28261;53.304;-6.284;2023-05-24T01:52:16;102370.25;;;12.38;79.26
42633;BME280;28261;53.304;-6.284;2023-05-24T01:54:22;102365.00;;;12.36;79.76
42633;BME280;28261;53.304;-6.284;2023-05-24T01:56:28;102369.53;;;12.34;79.47
42633;BME280;28261;53.304;-6.284;2023-05-24T01:58:34;102370.53;;;12.31;79.25
42633;BME280;28261;53.304;-6.284;2023-05-24T02:00:40;102372.34;;;12.31;78.98
42633;BME280;28261;53.304;-6.284;2023-05-24T02:02:44;102378.59;;;12.30;79.52
42633;BME280;28261;53.304;-6.284;2023-05-24T02:04:51;102376.88;;;12.29;79.42
42633;BME280;28261;53.304;-6.284;2023-05-24T02:06:55;102380.56;;;12.26;80.19
42633;BME280;28261;53.304;-6.284;2023-05-24T02:08:58;102381.56;;;12.24;80.40
42633;BME280;28261;53.304;-6.284;2023-05-24T02:11:02;102386.06;;;12.22;80.01
42633;BME280;28261;53.304;-6.284;2023-05-24T02:13:06;102388.88;;;12.18;80.59
42633;BME280;28261;53.304;-6.284;2023-05-24T02:15:10;102377.59;;;12.13;79.92
42633;BME280;28261;53.304;-6.284;2023-05-24T02:17:17;102389.31;;;12.09;80.85
42633;BME280;28261;53.304;-6.284;2023-05-24T02:19:21;102381.47;;;12.06;81.76
42633;BME280;28261;53.304;-6.284;2023-05-24T02:21:27;102380.69;;;12.04;81.28
42633;BME280;28261;53.304;-6.284;2023-05-24T02:23:30;102374.59;;;12.02;81.40
42633;BME280;28261;53.304;-6.284;2023-05-24T02:25:34;102370.19;;;12.01;81.44
42633;BME280;28261;53.304;-6.284;2023-05-24T02:27:37;102372.78;;;12.02;81.76
42633;BME280;28261;53.304;-6.284;2023-05-24T02:29:40;102378.16;;;12.01;81.57
42633;BME280;28261;53.304;-6.284;2023-05-24T02:31:44;102377.31;;;12.00;81.52
42633;BME280;28261;53.304;-6.284;2023-05-24T02:33:49;102377.41;;;11.99;81.20
42633;BME280;28261;53.304;-6.284;2023-05-24T02:35:53;102375.81;;;11.95;81.60
42633;BME280;28261;53.304;-6.284;2023-05-24T02:37:56;102382.94;;;11.93;81.70
42633;BME280;28261;53.304;-6.284;2023-05-24T02:40:00;102378.56;;;11.92;82.16
42633;BME280;28261;53.304;-6.284;2023-05-24T02:42:05;102381.22;;;11.92;82.54
42633;BME280;28261;53.304;-6.284;2023-05-24T02:44:09;102385.59;;;11.93;82.39
42633;BME280;28261;53.304;-6.284;2023-05-24T02:46:13;102374.06;;;11.94;82.55
42633;BME280;28261;53.304;-6.284;2023-05-24T02:48:17;102378.56;;;11.92;82.32
42633;BME280;28261;53.304;-6.284;2023-05-24T02:50:22;102375.97;;;11.90;82.28
42633;BME280;28261;53.304;-6.284;2023-05-24T02:52:25;102376.06;;;11.89;82.27
42633;BME280;28261;53.304;-6.284;2023-05-24T02:54:29;102376.94;;;11.89;82.74
42633;BME280;28261;53.304;-6.284;2023-05-24T02:56:32;102374.31;;;11.88;82.17
42633;BME280;28261;53.304;-6.284;2023-05-24T02:58:36;102372.53;;;11.88;82.30
42633;BME280;28261;53.304;-6.284;2023-05-24T03:00:42;102373.41;;;11.89;82.21
42633;BME280;28261;53.304;-6.284;2023-05-24T03:02:45;102378.78;;;11.87;82.21
42633;BME280;28261;53.304;-6.284;2023-05-24T03:04:52;102383.28;;;11.85;82.68
42633;BME280;28261;53.304;-6.284;2023-05-24T03:06:57;102379.84;;;11.83;82.42
42633;BME280;28261;53.304;-6.284;2023-05-24T03:09:00;102377.34;;;11.80;83.35
42633;BME280;28261;53.304;-6.284;2023-05-24T03:11:04;102364.13;;;11.78;82.72
42633;BME280;28261;53.304;-6.284;2023-05-24T03:13:08;102369.56;;;11.75;82.92
42633;BME280;28261;53.304;-6.284;2023-05-24T03:15:12;102374.88;;;11.75;82.64
42633;BME280;28261;53.304;-6.284;2023-05-24T03:17:15;102372.31;;;11.74;82.97
42633;BME280;28261;53.304;-6.284;2023-05-24T03:19:18;102369.72;;;11.72;82.52
42633;BME280;28261;53.304;-6.284;2023-05-24T03:21:22;102375.97;;;11.71;83.12
42633;BME280;28261;53.304;-6.284;2023-05-24T03:23:27;102377.84;;;11.69;83.01
42633;BME280;28261;53.304;-6.284;2023-05-24T03:25:31;102380.50;;;11.69;83.03
42633;BME280;28261;53.304;-6.284;2023-05-24T03:27:34;102383.22;;;11.67;83.31
42633;BME280;28261;53.304;-6.284;2023-05-24T03:29:38;102373.53;;;11.66;83.43
42633;BME280;28261;53.304;-6.284;2023-05-24T03:31:41;102376.25;;;11.65;83.07
42633;BME280;28261;53.304;-6.284;2023-05-24T03:33:45;102376.31;;;11.63;83.65
42633;BME280;28261;53.304;-6.284;2023-05-24T03:35:49;102379.91;;;11.62;83.67
42633;BME280;28261;53.304;-6.284;2023-05-24T03:37:53;102376.41;;;11.62;83.80
42633;BME280;28261;53.304;-6.284;2023-05-24T03:39:58;102374.66;;;11.61;83.70
42633;BME280;28261;53.304;-6.284;2023-05-24T03:42:14;102379.97;;;11.61;83.38
42633;BME280;28261;53.304;-6.284;2023-05-24T03:44:17;102375.59;;;11.60;83.42
42633;BME280;28261;53.304;-6.284;2023-05-24T03:46:21;102380.91;;;11.60;84.00
42633;BME280;28261;53.304;-6.284;2023-05-24T03:48:24;102379.25;;;11.57;84.08
42633;BME280;28261;53.304;-6.284;2023-05-24T03:50:28;102377.50;;;11.56;83.52
42633;BME280;28261;53.304;-6.284;2023-05-24T03:52:31;102387.34;;;11.54;83.81
42633;BME280;28261;53.304;-6.284;2023-05-24T03:54:34;102384.78;;;11.52;83.90
42633;BME280;28261;53.304;-6.284;2023-05-24T03:56:40;102388.34;;;11.51;83.67
42633;BME280;28261;53.304;-6.284;2023-05-24T03:58:43;102393.81;;;11.48;83.75
42633;BME280;28261;53.304;-6.284;2023-05-24T04:00:47;102393.06;;;11.45;83.61
42633;BME280;28261;53.304;-6.284;2023-05-24T04:02:50;102388.75;;;11.42;83.93
42633;BME280;28261;53.304;-6.284;2023-05-24T04:04:55;102395.78;;;11.43;83.82
42633;BME280;28261;53.304;-6.284;2023-05-24T04:06:59;102406.50;;;11.42;84.02
42633;BME280;28261;53.304;-6.284;2023-05-24T04:09:02;102397.63;;;11.41;83.80
42633;BME280;28261;53.304;-6.284;2023-05-24T04:11:07;102387.91;;;11.42;83.70
42633;BME280;28261;53.304;-6.284;2023-05-24T04:13:12;102397.63;;;11.41;84.23
42633;BME280;28261;53.304;-6.284;2023-05-24T04:15:16;102397.63;;;11.41;84.23
42633;BME280;28261;53.304;-6.284;2023-05-24T04:17:19;102408.25;;;11.41;84.07
42633;BME280;28261;53.304;-6.284;2023-05-24T04:19:26;102402.94;;;11.41;84.42
42633;BME280;28261;53.304;-6.284;2023-05-24T04:21:31;102398.53;;;11.42;84.43
42633;BME280;28261;53.304;-6.284;2023-05-24T04:23:35;102401.19;;;11.42;85.18
42633;BME280;28261;53.304;-6.284;2023-05-24T04:25:39;102399.38;;;11.42;84.76
42633;BME280;28261;53.304;-6.284;2023-05-24T04:27:43;102401.97;;;11.44;85.14
42633;BME280;28261;53.304;-6.284;2023-05-24T04:29:52;102411.72;;;11.43;85.23
42633;BME280;28261;53.304;-6.284;2023-05-24T04:31:56;102414.31;;;11.45;85.20
42633;BME280;28261;53.304;-6.284;2023-05-24T04:34:01;102411.50;;;11.48;85.16
42633;BME280;28261;53.304;-6.284;2023-05-24T04:36:05;102417.72;;;11.48;85.66
42633;BME280;28261;53.304;-6.284;2023-05-24T04:38:09;102405.22;;;11.50;85.41
42633;BME280;28261;53.304;-6.284;2023-05-24T04:40:13;102413.09;;;11.52;85.38
42633;BME280;28261;53.304;-6.284;2023-05-24T04:42:17;102413.91;;;11.54;85.33
42633;BME280;28261;53.304;-6.284;2023-05-24T04:44:20;102414.66;;;11.58;85.40
42633;BME280;28261;53.304;-6.284;2023-05-24T04:46:25;102412.78;;;11.60;85.16
42633;BME280;28261;53.304;-6.284;2023-05-24T04:48:28;102415.19;;;11.66;85.46
42633;BME280;28261;53.304;-6.284;2023-05-24T04:50:31;102415.81;;;11.71;84.91
42633;BME280;28261;53.304;-6.284;2023-05-24T04:52:36;102420.13;;;11.74;84.51
42633;BME280;28261;53.304;-6.284;2023-05-24T04:54:39;102428.84;;;11.77;84.76
42633;BME280;28261;53.304;-6.284;2023-05-24T04:56:42;102431.34;;;11.80;84.49
42633;BME280;28261;53.304;-6.284;2023-05-24T04:58:47;102425.88;;;11.83;84.28
42633;BME280;28261;53.304;-6.284;2023-05-24T05:00:50;102430.13;;;11.88;84.41
42633;BME280;28261;53.304;-6.284;2023-05-24T05:02:55;102425.53;;;11.91;84.85
42633;BME280;28261;53.304;-6.284;2023-05-24T05:04:58;102435.00;;;11.98;84.70
42633;BME280;28261;53.304;-6.284;2023-05-24T05:07:02;102432.28;;;12.19;84.28
42633;BME280;28261;53.304;-6.284;2023-05-24T05:09:05;102436.88;;;12.53;83.57
42633;BME280;28261;53.304;-6.284;2023-05-24T05:11:10;102436.56;;;12.96;81.97
42633;BME280;28261;53.304;-6.284;2023-05-24T05:13:13;102436.38;;;13.36;80.59
42633;BME280;28261;53.304;-6.284;2023-05-24T05:15:17;102436.94;;;13.76;78.82
42633;BME280;28261;53.304;-6.284;2023-05-24T05:17:20;102434.03;;;14.14;77.31
42633;BME280;28261;53.304;-6.284;2023-05-24T05:19:25;102428.44;;;14.51;75.69
42633;BME280;28261;53.304;-6.284;2023-05-24T05:21:29;102420.50;;;14.81;74.46
42633;BME280;28261;53.304;-6.284;2023-05-24T05:23:33;102426.03;;;14.78;73.49
42633;BME280;28261;53.304;-6.284;2023-05-24T05:25:37;102429.59;;;14.63;73.94
42633;BME280;28261;53.304;-6.284;2023-05-24T05:27:42;102425.63;;;14.38;74.74
42633;BME280;28261;53.304;-6.284;2023-05-24T05:29:46;102424.91;;;14.18;75.76
42633;BME280;28261;53.304;-6.284;2023-05-24T05:31:49;102423.13;;;14.19;76.42
42633;BME280;28261;53.304;-6.284;2023-05-24T05:33:53;102437.31;;;14.51;75.29
42633;BME280;28261;53.304;-6.284;2023-05-24T05:35:59;102436.22;;;15.02;73.83
42633;BME280;28261;53.304;-6.284;2023-05-24T05:38:03;102422.81;;;15.48;70.72
42633;BME280;28261;53.304;-6.284;2023-05-24T05:40:08;102422.50;;;15.83;69.55
42633;BME280;28261;53.304;-6.284;2023-05-24T05:42:11;102427.22;;;16.21;67.56
42633;BME280;28261;53.304;-6.284;2023-05-24T05:44:15;102417.56;;;16.61;66.56
42633;BME280;28261;53.304;-6.284;2023-05-24T05:46:19;102431.41;;;16.95;65.04
42633;BME280;28261;53.304;-6.284;2023-05-24T05:48:24;102429.13;;;17.29;63.96
42633;BME280;28261;53.304;-6.284;2023-05-24T05:50:28;102429.16;;;17.54;62.59
42633;BME280;28261;53.304;-6.284;2023-05-24T05:52:33;102431.72;;;17.82;61.52
42633;BME280;28261;53.304;-6.284;2023-05-24T05:54:37;102433.88;;;18.15;60.63
42633;BME280;28261;53.304;-6.284;2023-05-24T05:56:41;102432.50;;;18.47;58.73
42633;BME280;28261;53.304;-6.284;2023-05-24T05:58:46;102432.59;;;18.69;56.83
42633;BME280;28261;53.304;-6.284;2023-05-24T06:00:50;102442.91;;;18.75;56.56
42633;BME280;28261;53.304;-6.284;2023-05-24T06:02:54;102450.81;;;18.90;56.41
42633;BME280;28261;53.304;-6.284;2023-05-24T06:04:58;102441.97;;;19.12;55.99
42633;BME280;28261;53.304;-6.284;2023-05-24T06:07:02;102437.50;;;19.35;54.31
42633;BME280;28261;53.304;-6.284;2023-05-24T06:09:07;102433.97;;;19.35;53.77
42633;BME280;28261;53.304;-6.284;2023-05-24T06:11:11;102434.47;;;19.40;53.55
42633;BME280;28261;53.304;-6.284;2023-05-24T06:13:15;102432.31;;;19.56;52.59
42633;BME280;28261;53.304;-6.284;2023-05-24T06:15:19;102427.91;;;19.55;52.40
42633;BME280;28261;53.304;-6.284;2023-05-24T06:17:24;102432.81;;;19.61;52.33
42633;BME280;28261;53.304;-6.284;2023-05-24T06:19:29;102434.06;;;19.80;51.55
42633;BME280;28261;53.304;-6.284;2023-05-24T06:21:33;102430.91;;;19.86;51.24
42633;BME280;28261;53.304;-6.284;2023-05-24T06:23:38;102439.69;;;20.00;50.86
42633;BME280;28261;53.304;-6.284;2023-05-24T06:25:43;102437.59;;;20.15;50.78
42633;BME280;28261;53.304;-6.284;2023-05-24T06:27:48;102438.66;;;20.35;50.52
42633;BME280;28261;53.304;-6.284;2023-05-24T06:29:52;102436.91;;;20.56;49.52
42633;BME280;28261;53.304;-6.284;2023-05-24T06:31:55;102437.16;;;20.53;48.72
42633;BME280;28261;53.304;-6.284;2023-05-24T06:33:59;102431.63;;;20.11;49.75
42633;BME280;28261;53.304;-6.284;2023-05-24T06:36:06;102437.75;;;19.90;50.06
42633;BME280;28261;53.304;-6.284;2023-05-24T06:38:10;102436.59;;;19.70;50.46
42633;BME280;28261;53.304;-6.284;2023-05-24T06:40:13;102444.97;;;19.32;50.94
42633;BME280;28261;53.304;-6.284;2023-05-24T06:42:19;102447.47;;;19.10;51.84
42633;BME280;28261;53.304;-6.284;2023-05-24T06:44:25;102444.19;;;19.18;51.47
42633;BME280;28261;53.304;-6.284;2023-05-24T06:46:35;102447.69;;;19.43;51.08
42633;BME280;28261;53.304;-6.284;2023-05-24T06:48:38;102453.84;;;19.68;50.33
42633;BME280;28261;53.304;-6.284;2023-05-24T06:50:43;102459.03;;;19.82;50.17
42633;BME280;28261;53.304;-6.284;2023-05-24T06:52:47;102447.75;;;19.88;49.85
42633;BME280;28261;53.304;-6.284;2023-05-24T06:54:50;102448.13;;;19.95;49.52
42633;BME280;28261;53.304;-6.284;2023-05-24T06:56:54;102451.94;;;19.81;50.22
42633;BME280;28261;53.304;-6.284;2023-05-24T06:58:59;102449.94;;;19.83;49.24
42633;BME280;28261;53.304;-6.284;2023-05-24T07:01:04;102450.28;;;19.67;49.72
42633;BME280;28261;53.304;-6.284;2023-05-24T07:03:08;102454.22;;;19.74;49.68
42633;BME280;28261;53.304;-6.284;2023-05-24T07:05:11;102464.84;;;19.65;49.35
42633;BME280;28261;53.304;-6.284;2023-05-24T07:07:15;102460.84;;;19.23;50.31
42633;BME280;28261;53.304;-6.284;2023-05-24T07:09:19;102460.09;;;19.21;50.71
42633;BME280;28261;53.304;-6.284;2023-05-24T07:11:22;102472.03;;;19.53;50.37
42633;BME280;28261;53.304;-6.284;2023-05-24T07:13:26;102460.97;;;19.80;49.64
42633;BME280;28261;53.304;-6.284;2023-05-24T07:15:31;102460.94;;;19.57;49.97
42633;BME280;28261;53.304;-6.284;2023-05-24T07:17:36;102463.56;;;19.35;50.51
42633;BME280;28261;53.304;-6.284;2023-05-24T07:19:40;102469.44;;;19.40;50.83
42633;BME280;28261;53.304;-6.284;2023-05-24T07:21:43;102470.94;;;19.67;50.18
42633;BME280;28261;53.304;-6.284;2023-05-24T07:23:48;102470.66;;;19.36;50.31
42633;BME280;28261;53.304;-6.284;2023-05-24T07:25:52;102471.78;;;19.09;50.66
42633;BME280;28261;53.304;-6.284;2023-05-24T07:27:55;102474.78;;;18.80;51.67
42633;BME280;28261;53.304;-6.284;2023-05-24T07:29:59;102471.53;;;18.64;52.26
42633;BME280;28261;53.304;-6.284;2023-05-24T07:32:05;102479.00;;;18.47;52.66
42633;BME280;28261;53.304;-6.284;2023-05-24T07:34:09;102473.38;;;18.50;52.71
42633;BME280;28261;53.304;-6.284;2023-05-24T07:36:13;102474.44;;;18.60;52.45
42633;BME280;28261;53.304;-6.284;2023-05-24T07:38:17;102480.91;;;18.58;52.39
42633;BME280;28261;53.304;-6.284;2023-05-24T07:40:21;102481.06;;;18.31;52.87
42633;BME280;28261;53.304;-6.284;2023-05-24T07:42:25;102474.34;;;17.99;53.77
42633;BME280;28261;53.304;-6.284;2023-05-24T07:44:29;102481.84;;;17.81;54.23
42633;BME280;28261;53.304;-6.284;2023-05-24T07:46:33;102484.97;;;17.88;54.11
42633;BME280;28261;53.304;-6.284;2023-05-24T07:48:38;102485.41;;;18.07;53.96
42633;BME280;28261;53.304;-6.284;2023-05-24T07:50:42;102485.56;;;18.30;52.71
42633;BME280;28261;53.304;-6.284;2023-05-24T07:52:49;102489.75;;;18.47;52.33
42633;BME280;28261;53.304;-6.284;2023-05-24T07:54:53;102491.25;;;18.75;51.51
42633;BME280;28261;53.304;-6.284;2023-05-24T07:56:57;102492.59;;;18.94;51.10
42633;BME280;28261;53.304;-6.284;2023-05-24T07:59:00;102502.38;;;19.19;50.63
42633;BME280;28261;53.304;-6.284;2023-05-24T08:01:05;102497.44;;;19.13;50.97
42633;BME280;28261;53.304;-6.284;2023-05-24T08:03:09;102505.50;;;19.13;51.35
42633;BME280;28261;53.304;-6.284;2023-05-24T08:05:17;102500.66;;;18.94;51.51
42633;BME280;28261;53.304;-6.284;2023-05-24T08:07:21;102507.75;;;18.58;52.25
42633;BME280;28261;53.304;-6.284;2023-05-24T08:09:25;102505.53;;;18.39;53.04
42633;BME280;28261;53.304;-6.284;2023-05-24T08:11:30;102509.88;;;18.03;53.82
42633;BME280;28261;53.304;-6.284;2023-05-24T08:13:34;102504.69;;;17.74;55.01
42633;BME280;28261;53.304;-6.284;2023-05-24T08:15:38;102499.44;;;17.72;55.04
42633;BME280;28261;53.304;-6.284;2023-05-24T08:17:41;102500.41;;;17.84;54.92
42633;BME280;28261;53.304;-6.284;2023-05-24T08:19:45;102508.59;;;17.96;55.01
42633;BME280;28261;53.304;-6.284;2023-05-24T08:21:51;102496.75;;;18.11;54.41
42633;BME280;28261;53.304;-6.284;2023-05-24T08:23:54;102505.16;;;18.19;54.32
42633;BME280;28261;53.304;-6.284;2023-05-24T08:25:58;102503.00;;;17.99;54.47
42633;BME280;28261;53.304;-6.284;2023-05-24T08:28:02;102501.25;;;17.72;55.56
42633;BME280;28261;53.304;-6.284;2023-05-24T08:30:06;102495.63;;;17.36;55.99
42633;BME280;28261;53.304;-6.284;2023-05-24T08:32:10;102501.06;;;16.95;57.30
42633;BME280;28261;53.304;-6.284;2023-05-24T08:34:14;102502.84;;;16.67;58.22
42633;BME280;28261;53.304;-6.284;2023-05-24T08:36:18;102500.59;;;16.46;59.04
42633;BME280;28261;53.304;-6.284;2023-05-24T08:38:23;102492.78;;;16.29;59.47
42633;BME280;28261;53.304;-6.284;2023-05-24T08:40:26;102496.03;;;16.19;59.98
42633;BME280;28261;53.304;-6.284;2023-05-24T08:42:30;102506.34;;;16.11;60.31
42633;BME280;28261;53.304;-6.284;2023-05-24T08:44:39;102500.81;;;16.00;60.67
42633;BME280;28261;53.304;-6.284;2023-05-24T08:46:44;102506.50;;;15.79;61.24
42633;BME280;28261;53.304;-6.284;2023-05-24T08:48:48;102512.69;;;15.65;61.21
42633;BME280;28261;53.304;-6.284;2023-05-24T08:50:54;102503.28;;;15.58;61.49
42633;BME280;28261;53.304;-6.284;2023-05-24T08:53:00;102509.97;;;15.51;61.47
42633;BME280;28261;53.304;-6.284;2023-05-24T08:55:07;102510.50;;;15.42;61.98
42633;BME280;28261;53.304;-6.284;2023-05-24T08:57:11;102506.66;;;15.31;62.28
42633;BME280;28261;53.304;-6.284;2023-05-24T08:59:16;102512.19;;;15.28;62.55
42633;BME280;28261;53.304;-6.284;2023-05-24T09:01:20;102515.91;;;15.26;62.65
42633;BME280;28261;53.304;-6.284;2023-05-24T09:03:24;102508.94;;;15.23;62.44
42633;BME280;28261;53.304;-6.284;2023-05-24T09:05:29;102505.84;;;15.15;62.95
42633;BME280;28261;53.304;-6.284;2023-05-24T09:07:33;102506.88;;;15.12;62.76
42633;BME280;28261;53.304;-6.284;2023-05-24T09:09:38;102503.59;;;15.07;63.25
42633;BME280;28261;53.304;-6.284;2023-05-24T09:11:49;102513.34;;;15.08;63.10
42633;BME280;28261;53.304;-6.284;2023-05-24T09:13:55;102507.81;;;15.11;62.87
42633;BME280;28261;53.304;-6.284;2023-05-24T09:16:00;102507.22;;;15.06;62.90
42633;BME280;28261;53.304;-6.284;2023-05-24T09:18:04;102509.66;;;15.11;62.52
42633;BME280;28261;53.304;-6.284;2023-05-24T09:20:08;102499.06;;;15.09;62.18
42633;BME280;28261;53.304;-6.284;2023-05-24T09:22:12;102498.16;;;15.09;62.75
42633;BME280;28261;53.304;-6.284;2023-05-24T09:24:17;102493.00;;;15.21;62.39
42633;BME280;28261;53.304;-6.284;2023-05-24T09:26:21;102490.88;;;15.27;62.57
42633;BME280;28261;53.304;-6.284;2023-05-24T09:28:31;102498.16;;;15.25;62.87
42633;BME280;28261;53.304;-6.284;2023-05-24T09:30:35;102499.09;;;15.23;63.19
42633;BME280;28261;53.304;-6.284;2023-05-24T09:32:39;102495.03;;;15.32;63.26
42633;BME280;28261;53.304;-6.284;2023-05-24T09:34:43;102485.06;;;15.50;62.63
42633;BME280;28261;53.304;-6.284;2023-05-24T09:36:48;102494.47;;;15.72;62.22
42633;BME280;28261;53.304;-6.284;2023-05-24T09:39:05;102492.75;;;15.85;61.30
42633;BME280;28261;53.304;-6.284;2023-05-24T09:41:11;102488.38;;;15.99;61.24
42633;BME280;28261;53.304;-6.284;2023-05-24T09:43:14;102486.47;;;16.15;60.61
42633;BME280;28261;53.304;-6.284;2023-05-24T09:45:20;102483.13;;;16.26;59.89
42633;BME280;28261;53.304;-6.284;2023-05-24T09:47:30;102490.38;;;16.38;59.78
42633;BME280;28261;53.304;-6.284;2023-05-24T09:49:36;102486.06;;;16.50;59.44
42633;BME280;28261;53.304;-6.284;2023-05-24T09:51:40;102485.13;;;16.51;58.90
42633;BME280;28261;53.304;-6.284;2023-05-24T09:53:44;102480.13;;;16.45;58.46
42633;BME280;28261;53.304;-6.284;2023-05-24T09:55:49;102472.88;;;16.47;58.83
42633;BME280;28261;53.304;-6.284;2023-05-24T09:58:01;102475.34;;;16.50;58.85
42633;BME280;28261;53.304;-6.284;2023-05-24T10:00:08;102468.06;;;16.52;58.99
42633;BME280;28261;53.304;-6.284;2023-05-24T10:02:21;102458.50;;;16.63;59.06
42633;BME280;28261;53.304;-6.284;2023-05-24T10:04:31;102473.44;;;16.80;58.93
42633;BME280;28261;53.304;-6.284;2023-05-24T10:06:36;102476.84;;;16.96;58.29
42633;BME280;28261;53.304;-6.284;2023-05-24T10:08:40;102474.22;;;17.09;57.88
42633;BME280;28261;53.304;-6.284;2023-05-24T10:10:44;102470.19;;;17.16;57.80
42633;BME280;28261;53.304;-6.284;2023-05-24T10:12:49;102478.97;;;17.18;57.49
42633;BME280;28261;53.304;-6.284;2023-05-24T10:14:54;102480.34;;;17.11;57.39
42633;BME280;28261;53.304;-6.284;2023-05-24T10:16:59;102473.47;;;17.07;57.64
42633;BME280;28261;53.304;-6.284;2023-05-24T10:19:04;102477.19;;;17.04;57.37
42633;BME280;28261;53.304;-6.284;2023-05-24T10:21:09;102477.13;;;17.06;57.93
42633;BME280;28261;53.304;-6.284;2023-05-24T10:23:18;102467.81;;;17.12;57.13
42633;BME280;28261;53.304;-6.284;2023-05-24T10:25:23;102474.13;;;17.11;57.55
42633;BME280;28261;53.304;-6.284;2023-05-24T10:27:30;102468.66;;;17.12;57.31
42633;BME280;28261;53.304;-6.284;2023-05-24T10:29:43;102465.59;;;17.18;57.77
42633;BME280;28261;53.304;-6.284;2023-05-24T10:31:51;102477.16;;;17.32;57.07
42633;BME280;28261;53.304;-6.284;2023-05-24T10:33:58;102474.09;;;17.38;56.82
42633;BME280;28261;53.304;-6.284;2023-05-24T10:36:12;102471.75;;;17.46;56.60
42633;BME280;28261;53.304;-6.284;2023-05-24T10:38:19;102475.19;;;17.61;56.09
42633;BME280;28261;53.304;-6.284;2023-05-24T10:40:25;102477.75;;;17.63;56.28
42633;BME280;28261;53.304;-6.284;2023-05-24T10:42:30;102478.94;;;17.46;56.35
42633;BME280;28261;53.304;-6.284;2023-05-24T10:44:34;102472.69;;;17.32;57.23
42633;BME280;28261;53.304;-6.284;2023-05-24T10:47:05;102475.78;;;17.26;57.73